Time;durP1;ratioP1;P1;durP2;ratioP2;P2;SDS_P1;SDS_P2;PMS_P1;PMS_P2;Temp;Humidity;BMP_temperature;BMP_pressure;BME280_temperature;BME280_humidity;BME280_pressure;Samples;Min_cycle;Max_cycle;Signal;HPM_P1;HPM_P2
2021/03/24 00:00:26;;;;;;;19.55;11.68;;;;;;;8.65;37.04;102022.00;5070649;28;20518;-75
2021/03/24 00:02:54;;;;;;;16.83;11.32;;;;;;;8.61;36.77;102021.31;5069220;28;20047;-75
2021/03/24 00:05:29;;;;;;;18.60;11.45;;;;;;;8.62;37.11;102016.75;5066179;28;20507;-76
2021/03/24 00:07:57;;;;;;;18.73;11.38;;;;;;;8.58;36.90;102023.34;5066211;28;20063;-75
2021/03/24 00:10:26;;;;;;;18.17;11.32;;;;;;;8.55;37.02;102024.44;5068583;28;20561;-76
2021/03/24 00:12:54;;;;;;;18.00;11.93;;;;;;;8.52;36.87;102026.44;5069192;28;20135;-76
2021/03/24 00:15:22;;;;;;;20.13;12.77;;;;;;;8.50;36.84;102023.81;5069720;28;20044;-76
2021/03/24 00:17:50;;;;;;;19.58;12.38;;;;;;;8.46;36.94;102022.25;5069644;28;20102;-76
2021/03/24 00:20:20;;;;;;;20.63;11.75;;;;;;;8.46;36.97;102024.09;5070884;28;20096;-75
2021/03/24 00:22:48;;;;;;;16.60;10.95;;;;;;;8.41;36.83;102027.03;5067433;28;20036;-76
2021/03/24 00:25:16;;;;;;;17.23;10.85;;;;;;;8.38;36.96;102021.78;5070548;28;20491;-76
2021/03/24 00:27:46;;;;;;;17.92;11.48;;;;;;;8.38;37.01;102026.34;5069304;28;20032;-75
2021/03/24 00:30:17;;;;;;;19.73;11.65;;;;;;;8.34;37.00;102022.91;5070739;28;20127;-75
2021/03/24 00:32:44;;;;;;;17.33;10.60;;;;;;;8.32;37.07;102024.84;5067954;28;20119;-75
2021/03/24 00:35:12;;;;;;;18.98;11.48;;;;;;;8.30;37.22;102018.63;5070398;28;20067;-76
2021/03/24 00:37:39;;;;;;;16.40;10.82;;;;;;;8.26;37.13;102019.75;5067930;28;20033;-76
2021/03/24 00:40:10;;;;;;;17.65;11.32;;;;;;;8.25;37.31;102018.88;5074732;28;20028;-76
2021/03/24 00:42:38;;;;;;;17.23;11.07;;;;;;;8.20;37.07;102017.41;5067452;28;20040;-76
2021/03/24 00:45:07;;;;;;;18.30;11.00;;;;;;;8.20;37.32;102003.78;5065587;28;20115;-75
2021/03/24 00:47:35;;;;;;;19.95;11.32;;;;;;;8.15;37.23;102014.91;5070711;28;20093;-76
2021/03/24 00:50:04;;;;;;;19.33;11.98;;;;;;;8.15;37.22;102019.50;5065434;28;20045;-76
2021/03/24 00:52:34;;;;;;;17.17;11.20;;;;;;;8.11;37.29;102010.63;5067558;28;20032;-76
2021/03/24 00:55:01;;;;;;;16.80;10.75;;;;;;;8.10;37.36;102008.00;5062969;28;20072;-75
2021/03/24 00:57:29;;;;;;;17.25;11.25;;;;;;;8.08;37.29;102004.47;5067684;28;20041;-75
2021/03/24 00:59:57;;;;;;;18.70;11.52;;;;;;;8.06;37.46;102000.97;5063517;28;20052;-75
2021/03/24 01:02:25;;;;;;;20.73;12.02;;;;;;;8.05;37.49;101996.50;5071566;28;20380;-75
2021/03/24 01:04:52;;;;;;;18.48;10.80;;;;;;;8.03;37.36;101998.41;5069151;28;20075;-75
2021/03/24 01:07:20;;;;;;;16.67;10.80;;;;;;;8.01;37.27;101998.50;5065594;28;20033;-76
2021/03/24 01:09:47;;;;;;;20.25;10.82;;;;;;;7.98;37.50;101995.09;5071690;28;20450;-75
2021/03/24 01:12:14;;;;;;;18.45;10.82;;;;;;;7.98;37.48;102000.53;5072870;28;20063;-75
2021/03/24 01:14:42;;;;;;;17.05;10.50;;;;;;;7.95;37.60;102007.03;5067539;28;20044;-76
2021/03/24 01:17:09;;;;;;;14.93;9.55;;;;;;;7.94;37.52;102004.38;5066436;28;20041;-76
2021/03/24 01:19:37;;;;;;;16.33;10.32;;;;;;;7.95;37.47;101998.84;5066548;28;20476;-76
2021/03/24 01:22:05;;;;;;;17.30;10.85;;;;;;;7.93;37.66;102000.78;5064754;28;20124;-75
2021/03/24 01:24:33;;;;;;;16.02;10.25;;;;;;;7.91;37.70;101997.25;5071521;28;20056;-76
2021/03/24 01:27:00;;;;;;;16.50;10.13;;;;;;;7.91;37.54;101991.81;5068515;28;20641;-75
2021/03/24 01:29:28;;;;;;;18.85;10.82;;;;;;;7.91;37.75;102001.81;5059250;28;20584;-76
2021/03/24 01:31:55;;;;;;;17.38;10.35;;;;;;;7.90;37.66;101997.38;5067037;28;20032;-75
2021/03/24 01:34:23;;;;;;;18.13;10.45;;;;;;;7.90;37.87;102008.28;5069142;28;20120;-75
2021/03/24 01:36:51;;;;;;;16.77;10.02;;;;;;;7.91;37.74;102010.00;5062521;28;20655;-75
2021/03/24 01:39:18;;;;;;;16.98;10.50;;;;;;;7.88;37.78;102003.78;5066583;28;20124;-76
2021/03/24 01:41:46;;;;;;;16.77;10.48;;;;;;;7.87;37.63;102012.03;5064513;28;20044;-76
2021/03/24 01:44:13;;;;;;;17.70;10.45;;;;;;;7.87;37.75;102004.75;5065117;28;20476;-75
2021/03/24 01:46:43;;;;;;;17.05;10.77;;;;;;;7.87;37.81;102001.13;5064038;28;20041;-76
2021/03/24 01:49:25;;;;;;;21.20;10.68;;;;;;;7.88;38.02;102001.06;5065899;28;20041;-76
2021/03/24 01:51:58;;;;;;;20.42;10.43;;;;;;;7.85;37.77;102003.94;5065731;28;20496;-75
2021/03/24 01:54:36;;;;;;;19.13;10.30;;;;;;;7.83;37.86;102003.16;5066425;28;20116;-76
2021/03/24 01:57:08;;;;;;;17.63;10.98;;;;;;;7.82;37.65;102000.50;5063719;28;20040;-76
2021/03/24 01:59:36;;;;;;;16.67;10.63;;;;;;;7.79;37.88;101997.97;5067919;28;20040;-76
2021/03/24 02:02:07;;;;;;;16.65;10.00;;;;;;;7.81;37.73;101996.94;5065928;28;20395;-76
2021/03/24 02:04:34;;;;;;;18.35;11.15;;;;;;;7.78;37.65;101988.03;5066730;28;20095;-75
2021/03/24 02:07:07;;;;;;;17.05;9.38;;;;;;;7.77;37.94;101992.59;5070202;28;21687;-76
2021/03/24 02:09:39;;;;;;;19.77;10.93;;;;;;;7.74;37.99;101998.22;5065280;28;20135;-77
2021/03/24 02:12:13;;;;;;;17.38;10.82;;;;;;;7.72;37.82;101992.00;5063972;28;20112;-76
2021/03/24 02:14:46;;;;;;;18.90;10.93;;;;;;;7.69;37.71;101991.28;5063242;28;20055;-76
2021/03/24 02:17:16;;;;;;;18.52;11.50;;;;;;;7.67;37.64;101996.81;5066813;28;20567;-76
2021/03/24 02:19:54;;;;;;;17.23;10.18;;;;;;;7.66;37.99;101992.31;5068496;28;20052;-76
2021/03/24 02:22:26;;;;;;;17.48;10.65;;;;;;;7.63;37.89;101995.25;5066368;28;20055;-76
2021/03/24 02:25:02;;;;;;;19.80;10.87;;;;;;;7.60;38.04;101995.41;5076319;28;20487;-76
2021/03/24 02:27:34;;;;;;;16.08;9.70;;;;;;;7.58;37.80;101994.59;5059588;28;20098;-74
2021/03/24 02:30:07;;;;;;;15.90;9.60;;;;;;;7.57;37.85;101994.72;5066819;28;20037;-75
2021/03/24 02:32:38;;;;;;;16.50;10.20;;;;;;;7.55;38.13;101992.06;5069279;28;20494;-75
2021/03/24 02:35:11;;;;;;;17.88;10.45;;;;;;;7.55;38.03;101991.19;5060837;28;20048;-76
2021/03/24 02:37:40;;;;;;;17.42;10.20;;;;;;;7.50;37.77;101992.31;5069137;28;20039;-75
2021/03/24 02:40:11;;;;;;;18.00;10.45;;;;;;;7.50;37.91;101995.03;5063907;28;20063;-76
2021/03/24 02:42:43;;;;;;;17.35;10.07;;;;;;;7.49;38.05;102000.56;5064698;28;20041;-75
2021/03/24 02:45:14;;;;;;;16.80;10.13;;;;;;;7.47;37.88;101995.22;5072138;28;20044;-75
2021/03/24 02:47:44;;;;;;;18.17;10.45;;;;;;;7.45;37.91;102005.31;5067279;28;20047;-74
2021/03/24 02:50:14;;;;;;;18.10;10.93;;;;;;;7.44;37.96;102006.25;5065073;28;20048;-76
2021/03/24 02:52:42;;;;;;;15.88;10.35;;;;;;;7.42;38.22;102000.00;5069240;28;20051;-75
2021/03/24 02:55:12;;;;;;;18.25;10.30;;;;;;;7.41;37.95;101995.53;5075728;28;20041;-76
2021/03/24 02:57:41;;;;;;;18.33;10.05;;;;;;;7.41;37.92;101989.19;5051999;28;20480;-75
2021/03/24 03:00:13;;;;;;;17.08;10.02;;;;;;;7.40;38.08;101998.38;5067593;28;20036;-75
2021/03/24 03:02:45;;;;;;;18.35;10.98;;;;;;;7.37;38.01;101996.69;5071445;28;20041;-75
2021/03/24 03:05:18;;;;;;;19.10;11.05;;;;;;;7.35;38.10;102000.44;5072269;28;20040;-75
2021/03/24 03:07:51;;;;;;;17.13;10.05;;;;;;;7.34;37.95;101988.66;5063745;28;20032;-75
2021/03/24 03:10:23;;;;;;;18.45;10.43;;;;;;;7.33;37.90;101986.03;5065495;28;20045;-74
2021/03/24 03:12:59;;;;;;;18.33;10.20;;;;;;;7.31;38.07;101986.13;5080817;28;20048;-75
2021/03/24 03:15:30;;;;;;;19.90;10.20;;;;;;;7.28;38.01;101982.69;5056556;28;20041;-75
2021/03/24 03:18:05;;;;;;;17.10;9.70;;;;;;;7.25;38.26;101978.28;5068955;28;20037;-75
2021/03/24 03:20:39;;;;;;;20.48;11.40;;;;;;;7.24;37.91;101981.13;5066430;28;20393;-75
2021/03/24 03:23:10;;;;;;;18.77;10.48;;;;;;;7.22;38.08;101975.75;5068779;28;20044;-75
2021/03/24 03:25:40;;;;;;;17.95;9.93;;;;;;;7.20;37.96;101982.22;5070119;28;20116;-76
2021/03/24 03:28:13;;;;;;;15.50;9.82;;;;;;;7.18;38.25;101981.44;5070684;28;20462;-75
2021/03/24 03:30:46;;;;;;;17.08;9.38;;;;;;;7.14;38.09;101988.00;5058291;28;20527;-75
2021/03/24 03:33:13;;;;;;;17.38;10.38;;;;;;;7.11;38.09;101983.59;5046011;28;20426;-75
2021/03/24 03:35:41;;;;;;;19.35;10.77;;;;;;;7.10;38.16;101985.44;5032869;28;20384;-75
2021/03/24 03:38:13;;;;;;;16.20;9.82;;;;;;;7.11;38.30;101987.22;5047117;28;20041;-76
2021/03/24 03:40:43;;;;;;;17.80;9.75;;;;;;;7.07;38.31;101985.63;5067739;28;20036;-76
2021/03/24 03:43:14;;;;;;;18.60;10.32;;;;;;;7.09;38.28;101991.84;5070995;28;21605;-76
2021/03/24 03:45:44;;;;;;;15.52;9.82;;;;;;;7.06;38.23;101989.31;5065260;28;20047;-75
2021/03/24 03:48:14;;;;;;;15.77;9.48;;;;;;;7.05;38.18;101995.72;5047040;28;20040;-75
2021/03/24 03:50:48;;;;;;;16.33;9.77;;;;;;;7.05;38.25;101992.09;5065535;28;20041;-75
2021/03/24 03:53:22;;;;;;;16.77;10.05;;;;;;;7.05;38.47;101987.53;5064650;28;20377;-76
2021/03/24 03:55:55;;;;;;;15.38;9.02;;;;;;;7.03;38.28;101989.44;5066599;28;20037;-76
2021/03/24 03:58:34;;;;;;;16.63;10.52;;;;;;;7.06;38.53;101985.72;5070520;28;20123;-76
2021/03/24 04:01:10;;;;;;;17.00;10.10;;;;;;;7.05;38.53;101992.09;5063947;28;20048;-76
2021/03/24 04:03:45;;;;;;;16.67;10.25;;;;;;;7.04;38.40;101993.94;5070169;28;20044;-76
2021/03/24 04:06:16;;;;;;;15.60;9.98;;;;;;;7.02;38.41;101987.66;5055160;28;20131;-76
2021/03/24 04:08:45;;;;;;;15.23;9.68;;;;;;;7.01;38.37;101985.91;5057206;28;20083;-76
2021/03/24 04:11:17;;;;;;;18.40;10.23;;;;;;;7.04;38.26;101993.94;5068643;28;20522;-75
2021/03/24 04:13:53;;;;;;;16.85;9.77;;;;;;;7.02;38.65;101993.09;5057097;28;20464;-76
2021/03/24 04:16:20;;;;;;;16.27;9.68;;;;;;;7.00;38.29;101989.56;5067105;28;20048;-76
2021/03/24 04:18:52;;;;;;;17.88;10.25;;;;;;;7.01;38.29;101985.03;5070383;28;20067;-76
2021/03/24 04:21:23;;;;;;;17.67;10.43;;;;;;;6.99;38.22;101986.97;5067072;28;20048;-75
2021/03/24 04:23:53;;;;;;;18.02;10.55;;;;;;;7.00;38.38;101984.13;5073681;28;20048;-75
2021/03/24 04:26:25;;;;;;;17.42;10.00;;;;;;;6.99;38.49;101985.13;5071742;28;20150;-75
2021/03/24 04:29:00;;;;;;;16.67;10.20;;;;;;;6.98;38.39;101991.53;5072347;28;20037;-76
2021/03/24 04:31:31;;;;;;;16.70;9.93;;;;;;;6.97;38.42;101987.03;5050417;28;20404;-76
2021/03/24 04:33:58;;;;;;;17.25;10.55;;;;;;;6.94;38.35;101986.31;5051067;28;20455;-76
2021/03/24 04:36:30;;;;;;;17.73;10.35;;;;;;;6.96;38.45;101995.28;5051870;28;20044;-75
2021/03/24 04:39:02;;;;;;;17.55;10.10;;;;;;;6.92;38.25;101997.28;5070964;28;20037;-76
2021/03/24 04:41:35;;;;;;;17.92;9.98;;;;;;;6.90;38.40;101988.34;5051824;28;20056;-75
2021/03/24 04:44:07;;;;;;;17.30;10.30;;;;;;;6.89;38.51;101999.28;5048279;28;20194;-75
2021/03/24 04:46:39;;;;;;;17.97;10.70;;;;;;;6.87;38.37;101990.31;5070193;28;20743;-76
2021/03/24 04:49:13;;;;;;;18.42;10.57;;;;;;;6.89;38.56;101996.56;5065584;28;20388;-75
2021/03/24 04:51:42;;;;;;;17.85;9.38;;;;;;;6.86;38.38;101997.59;5068819;28;20037;-74
2021/03/24 04:54:16;;;;;;;16.30;10.02;;;;;;;6.87;38.46;101993.03;5069186;28;20771;-76
2021/03/24 04:56:48;;;;;;;17.45;9.48;;;;;;;6.85;38.59;101986.81;5066251;28;20041;-75
2021/03/24 04:59:20;;;;;;;16.35;9.93;;;;;;;6.85;38.42;101987.69;5066012;28;20040;-75
2021/03/24 05:01:51;;;;;;;16.13;9.55;;;;;;;6.82;38.36;101990.59;5071892;28;20047;-75
2021/03/24 05:04:26;;;;;;;14.98;8.98;;;;;;;6.81;38.90;101994.25;5067522;28;20038;-75
2021/03/24 05:07:01;;;;;;;16.88;9.80;;;;;;;6.82;38.71;101992.41;5051781;28;20083;-75
2021/03/24 05:09:29;;;;;;;18.38;10.45;;;;;;;6.78;38.54;101996.25;5066041;28;20090;-76
2021/03/24 05:12:06;;;;;;;20.00;10.93;;;;;;;6.79;38.55;101989.84;5049764;28;20056;-75
2021/03/24 05:14:37;;;;;;;17.45;9.85;;;;;;;6.77;38.54;101995.38;5067001;28;20072;-76
2021/03/24 05:17:16;;;;;;;18.02;9.75;;;;;;;6.75;38.73;101992.72;5068087;28;20119;-76
2021/03/24 05:19:46;;;;;;;19.85;10.13;;;;;;;6.72;38.51;101992.91;5063386;28;20068;-76
2021/03/24 05:22:24;;;;;;;18.17;10.57;;;;;;;6.73;38.75;101993.78;5053511;28;20091;-76
2021/03/24 05:24:56;;;;;;;15.15;9.48;;;;;;;6.71;38.65;101993.84;5047516;28;20056;-76
2021/03/24 05:27:29;;;;;;;16.05;9.50;;;;;;;6.70;38.54;101996.66;5067135;28;20051;-76
2021/03/24 05:30:06;;;;;;;17.70;9.93;;;;;;;6.69;38.76;101992.16;5065242;28;20043;-76
2021/03/24 05:32:39;;;;;;;17.23;9.80;;;;;;;6.67;38.68;101996.78;5070144;28;20445;-76
2021/03/24 05:35:23;;;;;;;19.73;11.27;;;;;;;6.69;38.79;101994.88;5073709;28;20116;-76
2021/03/24 05:37:51;;;;;;;19.25;11.00;;;;;;;6.63;38.55;102000.66;5073086;28;20052;-76
2021/03/24 05:40:39;;;;;;;18.17;10.57;;;;;;;6.67;38.92;101992.25;5080013;28;20115;-76
2021/03/24 05:43:21;;;;;;;18.35;10.52;;;;;;;6.67;38.90;102002.22;5056969;28;20045;-76
2021/03/24 05:45:57;;;;;;;17.85;10.20;;;;;;;6.63;38.68;101993.38;5073538;28;20032;-69
2021/03/24 05:48:53;;;;;;;17.50;9.40;;;;;;;6.63;39.12;102003.38;5046817;28;20047;-68
2021/03/24 05:51:31;;;;;;;18.25;10.13;;;;;;;6.64;39.13;102010.56;5068957;28;20102;-68
2021/03/24 05:54:43;;;;;;;17.65;9.45;;;;;;;6.64;39.25;102002.41;5051363;28;20131;-76
2021/03/24 05:57:43;;;;;;;17.40;10.43;;;;;;;6.61;39.15;102000.72;5068013;28;20068;-76
2021/03/24 06:00:32;;;;;;;17.27;9.38;;;;;;;6.65;39.19;102007.78;5064332;28;20527;-76
2021/03/24 06:03:07;;;;;;;17.25;10.13;;;;;;;6.65;39.11;101999.63;5061128;28;20040;-76
2021/03/24 06:05:49;;;;;;;17.45;9.93;;;;;;;6.68;39.20;102010.31;5058016;28;20086;-76
2021/03/24 06:09:02;;;;;;;16.70;10.13;;;;;;;6.65;39.23;102004.19;5054456;28;20044;-75
2021/03/24 06:12:00;;;;;;;19.90;10.18;;;;;;;6.65;39.26;101999.63;5042447;28;20056;-76
2021/03/24 06:15:05;;;;;;;16.15;9.05;;;;;;;6.64;39.26;101997.84;5069796;28;20068;-75
2021/03/24 06:18:17;;;;;;;18.10;10.65;;;;;;;6.67;39.13;102003.13;5068110;28;20060;-76
2021/03/24 06:20:52;;;;;;;17.00;9.85;;;;;;;6.64;39.11;102006.00;5064402;28;20033;-75
2021/03/24 06:23:41;;;;;;;17.98;9.85;;;;;;;6.70;39.13;102000.25;5069432;28;20086;-76
2021/03/24 06:26:23;;;;;;;18.35;10.15;;;;;;;6.72;39.22;101992.03;5068709;28;20131;-76
2021/03/24 06:29:02;;;;;;;18.25;9.75;;;;;;;6.75;39.20;101994.56;5058918;28;20123;-76
2021/03/24 06:32:05;;;;;;;20.13;10.73;;;;;;;6.75;39.08;101997.28;5068005;28;20056;-77
2021/03/24 06:35:10;;;;;;;14.60;9.18;;;;;;;6.72;39.22;101995.63;5064595;28;20099;-77
2021/03/24 06:37:56;;;;;;;16.50;9.30;;;;;;;6.75;39.42;101991.84;5073772;28;20403;-76
2021/03/24 06:40:39;;;;;;;16.40;9.35;;;;;;;6.80;39.21;102002.50;5070329;28;20127;-76
2021/03/24 06:43:18;;;;;;;;;;;;;;;6.55;39.47;101997.44;5072079;28;20491;-75
2021/03/24 06:45:56;;;;;;;16.98;8.50;;;;;;;6.81;39.34;101998.81;5072313;28;19927;-77
2021/03/24 06:48:48;;;;;;;18.98;10.55;;;;;;;6.85;39.49;102006.72;5060806;28;20036;-69
2021/03/24 06:52:18;;;;;;;17.38;9.70;;;;;;;6.83;39.80;102007.78;5074618;28;20043;-78
2021/03/24 06:55:31;;;;;;;17.15;10.27;;;;;;;6.90;39.56;102010.09;5072044;28;20077;-79
2021/03/24 06:58:38;;;;;;;17.27;10.18;;;;;;;6.97;39.67;102008.81;5019008;28;20163;-77
2021/03/24 07:01:32;;;;;;;16.42;10.50;;;;;;;7.04;39.56;102013.00;5064040;28;20381;-81
2021/03/24 07:04:32;;;;;;;17.13;9.75;;;;;;;7.09;39.65;102010.88;5053754;28;20051;-77
2021/03/24 07:07:25;;;;;;;19.02;10.20;;;;;;;7.18;39.86;102014.97;5052441;28;20043;-77
2021/03/24 07:10:02;;;;;;;19.23;10.80;;;;;;;7.27;40.20;102019.03;5054084;28;20045;-77
2021/03/24 07:12:38;;;;;;;17.05;10.50;;;;;;;7.38;40.36;102016.63;5070666;28;20047;-77
2021/03/24 07:15:20;;;;;;;19.98;10.55;;;;;;;7.52;40.55;102014.00;5061085;28;20116;-77
2021/03/24 07:18:35;;;;;;;17.90;10.75;;;;;;;7.64;40.45;102013.34;5073311;28;20479;-77
2021/03/24 07:21:29;;;;;;;15.90;9.40;;;;;;;7.87;40.65;102014.75;5023700;28;20130;-77
2021/03/24 07:24:34;;;;;;;18.45;11.02;;;;;;;8.03;40.44;102020.22;5039477;28;20465;-76
2021/03/24 07:27:25;;;;;;;15.55;9.23;;;;;;;8.28;40.12;102012.38;4984031;28;20110;-78
2021/03/24 07:30:01;;;;;;;17.15;9.25;;;;;;;8.49;40.06;102015.72;5065325;28;20056;-76
2021/03/24 07:32:40;;;;;;;19.17;10.88;;;;;;;8.68;39.78;102019.09;5057498;28;20131;-78
2021/03/24 07:35:23;;;;;;;17.88;10.15;;;;;;;8.85;39.29;102010.78;5055611;28;20036;-77
2021/03/24 07:38:09;;;;;;;14.10;9.30;;;;;;;9.00;39.17;102011.69;5075508;28;20484;-77
2021/03/24 07:40:58;;;;;;;16.92;10.27;;;;;;;9.15;38.70;102012.59;5074247;28;20395;-77
2021/03/24 07:43:41;;;;;;;18.85;9.85;;;;;;;9.29;38.60;102015.34;5075540;28;20024;-77
2021/03/24 07:46:27;;;;;;;17.67;10.18;;;;;;;9.39;38.00;102013.78;5057713;28;20047;-77
2021/03/24 07:49:13;;;;;;;16.48;9.93;;;;;;;9.51;37.96;102017.59;5074816;28;20063;-77
2021/03/24 07:52:18;;;;;;;17.02;10.38;;;;;;;9.58;37.73;102019.84;5074114;28;20071;-81
2021/03/24 07:54:54;;;;;;;15.07;9.10;;;;;;;9.66;37.77;102008.41;5066269;28;20039;-84
2021/03/24 07:57:32;;;;;;;17.73;9.75;;;;;;;9.74;37.56;102012.44;5050046;28;20045;-80
2021/03/24 08:00:09;;;;;;;16.92;10.10;;;;;;;9.79;37.56;102009.44;5057326;28;20040;-81
2021/03/24 08:02:55;;;;;;;17.63;10.30;;;;;;;9.84;37.32;102007.25;5058916;28;20049;-80
2021/03/24 08:05:41;;;;;;;16.45;9.65;;;;;;;9.87;37.11;102004.34;5067976;28;20036;-79
2021/03/24 08:08:14;;;;;;;19.65;10.88;;;;;;;9.88;37.30;102006.06;5057114;28;20123;-82
2021/03/24 08:10:54;;;;;;;15.55;10.10;;;;;;;9.91;37.11;102008.63;5039717;28;20052;-81
2021/03/24 08:13:51;;;;;;;17.25;10.52;;;;;;;9.92;37.16;102006.75;5071754;28;20123;-81
2021/03/24 08:16:35;;;;;;;18.17;10.18;;;;;;;9.93;36.93;102005.78;5074801;28;20479;-80
2021/03/24 08:19:29;;;;;;;17.38;11.10;;;;;;;9.94;37.08;102013.00;5049133;28;20041;-77
2021/03/24 08:22:12;;;;;;;19.77;10.23;;;;;;;9.95;37.15;102009.31;5070039;28;20044;-77
2021/03/24 08:24:49;;;;;;;17.58;10.10;;;;;;;9.97;37.13;102010.06;5062957;28;20055;-76
2021/03/24 08:27:22;;;;;;;17.33;9.82;;;;;;;10.00;36.91;102008.00;5072734;28;20047;-77
2021/03/24 08:30:10;;;;;;;19.55;11.02;;;;;;;10.02;36.82;102008.81;5070922;28;20119;-77
2021/03/24 08:33:07;;;;;;;18.25;10.20;;;;;;;10.01;36.88;102004.31;5027420;28;20044;-79
2021/03/24 08:36:13;;;;;;;17.15;9.88;;;;;;;10.02;36.98;102003.34;5055296;28;20047;-76
2021/03/24 08:39:00;;;;;;;15.70;9.25;;;;;;;10.06;36.86;102009.47;5068754;28;20041;-77
2021/03/24 08:42:01;;;;;;;16.38;9.52;;;;;;;10.05;36.82;102002.22;5055158;28;20044;-78
2021/03/24 08:44:33;;;;;;;16.58;9.77;;;;;;;10.08;37.16;101997.44;5056499;28;20048;-79
2021/03/24 08:47:12;;;;;;;17.75;10.32;;;;;;;10.13;36.84;101995.28;5052975;28;20047;-86
2021/03/24 08:49:44;;;;;;;17.02;9.32;;;;;;;10.13;37.24;101991.66;5045555;28;20045;-83
2021/03/24 08:52:25;;;;;;;16.70;10.00;;;;;;;10.16;37.11;101991.47;5054038;28;20128;-78
2021/03/24 08:55:01;;;;;;;13.98;8.88;;;;;;;10.20;37.34;101982.09;5032698;28;20307;-76
2021/03/24 08:57:46;;;;;;;18.08;10.02;;;;;;;10.25;37.04;101985.38;5074940;28;20113;-79
2021/03/24 09:00:26;;;;;;;17.63;9.95;;;;;;;10.30;37.08;101982.34;5076926;28;20070;-78
2021/03/24 09:03:04;;;;;;;16.92;10.50;;;;;;;10.34;37.12;101984.78;5062591;28;20127;-78
2021/03/24 09:05:39;;;;;;;18.92;10.93;;;;;;;10.40;37.37;101978.00;5056992;28;20041;-78
2021/03/24 09:08:24;;;;;;;15.27;9.48;;;;;;;10.45;37.34;101981.31;5056812;28;20093;-76
2021/03/24 09:11:11;;;;;;;16.17;9.45;;;;;;;10.51;37.01;101981.78;5065229;28;20044;-77
2021/03/24 09:13:44;;;;;;;16.80;9.10;;;;;;;10.56;37.27;101969.63;5071691;28;20127;-80
2021/03/24 09:16:49;;;;;;;18.15;10.00;;;;;;;10.62;37.40;101972.81;5074259;28;20036;-78
2021/03/24 09:19:30;;;;;;;18.88;8.85;;;;;;;10.71;37.15;101965.81;5037884;28;20132;-77
2021/03/24 09:22:07;;;;;;;19.20;9.52;;;;;;;10.83;37.56;101973.19;5071232;28;20095;-78
2021/03/24 09:25:00;;;;;;;18.52;9.30;;;;;;;10.90;37.32;101974.53;5071634;28;20044;-77
2021/03/24 09:27:43;;;;;;;15.43;9.10;;;;;;;11.01;37.35;101968.31;5072476;28;20045;-79
2021/03/24 09:31:06;;;;;;;19.27;12.15;;;;;;;11.04;37.23;101971.69;5060886;28;20068;-75
2021/03/24 09:33:53;;;;;;;19.13;11.05;;;;;;;11.21;37.15;101981.47;5069954;28;20052;-79
2021/03/24 09:36:57;;;;;;;18.20;10.48;;;;;;;11.33;37.06;101972.38;5061555;28;20036;-80
2021/03/24 09:39:31;;;;;;;16.63;9.52;;;;;;;11.43;37.30;101967.13;5068315;28;20389;-76
2021/03/24 09:42:04;;;;;;;19.98;11.20;;;;;;;11.54;36.88;101965.31;5072008;28;20455;-77
2021/03/24 09:44:35;;;;;;;;;;;;;;;11.36;37.35;101969.41;5072761;28;20048;-77
2021/03/24 09:47:13;;;;;;;19.25;10.85;;;;;;;11.69;37.32;101967.97;5070380;28;20017;-77
2021/03/24 09:49:45;;;;;;;19.80;11.05;;;;;;;11.85;36.64;101965.84;5067873;28;20043;-77
2021/03/24 09:52:28;;;;;;;18.92;10.73;;;;;;;11.98;36.22;101958.47;5066585;28;20051;-76
2021/03/24 09:55:13;;;;;;;18.02;10.57;;;;;;;12.06;36.68;101950.53;5071478;28;20064;-77
2021/03/24 09:58:07;;;;;;;19.48;9.75;;;;;;;12.19;36.52;101950.47;5065306;28;20046;-75
2021/03/24 10:00:39;;;;;;;18.92;10.90;;;;;;;12.29;36.89;101951.53;5073371;28;20052;-76
2021/03/24 10:03:12;;;;;;;17.52;10.85;;;;;;;12.43;36.51;101945.84;5068697;28;20064;-75
2021/03/24 10:05:49;;;;;;;18.92;11.05;;;;;;;12.54;35.93;101937.66;5072109;28;20043;-76
2021/03/24 10:08:21;;;;;;;18.17;10.88;;;;;;;12.66;36.12;101942.22;5065947;28;20036;-76
2021/03/24 10:10:50;;;;;;;19.65;10.90;;;;;;;12.78;35.99;101934.88;5064071;28;20072;-76
2021/03/24 10:13:24;;;;;;;18.50;11.30;;;;;;;12.90;35.68;101941.28;5067779;28;20048;-76
2021/03/24 10:15:59;;;;;;;19.42;10.98;;;;;;;13.01;35.69;101933.06;5063759;28;20458;-78
2021/03/24 10:18:32;;;;;;;20.67;11.60;;;;;;;13.12;35.43;101928.47;5058233;28;20048;-78
2021/03/24 10:21:08;;;;;;;18.40;10.45;;;;;;;13.27;35.17;101931.00;5066664;28;20056;-77
2021/03/24 10:23:40;;;;;;;17.60;11.13;;;;;;;13.37;35.35;101923.75;5070070;28;20407;-78
2021/03/24 10:26:11;;;;;;;;;;;;;;;13.17;35.68;101925.38;5077625;28;20037;-76
2021/03/24 10:28:43;;;;;;;17.40;9.80;;;;;;;13.54;35.65;101929.63;5071408;28;19924;-78
2021/03/24 10:31:19;;;;;;;20.92;11.45;;;;;;;13.69;34.70;101932.97;5072068;28;20380;-77
2021/03/24 10:33:52;;;;;;;18.95;10.45;;;;;;;13.81;35.06;101915.47;5083960;28;20044;-77
2021/03/24 10:36:26;;;;;;;17.60;10.13;;;;;;;13.91;34.49;101927.47;5035073;28;20041;-77
2021/03/24 10:39:03;;;;;;;18.88;11.65;;;;;;;14.04;34.01;101919.06;5070100;28;20052;-78
2021/03/24 10:41:49;;;;;;;16.58;10.45;;;;;;;14.15;33.76;101918.19;5066225;28;20080;-78
2021/03/24 10:44:24;;;;;;;16.85;10.15;;;;;;;14.24;34.20;101923.75;5074177;28;20060;-76
2021/03/24 10:47:08;;;;;;;20.17;11.73;;;;;;;14.34;33.47;101915.59;5063745;28;20400;-80
2021/03/24 10:49:44;;;;;;;16.85;10.25;;;;;;;14.43;33.58;101914.78;5063125;28;20049;-78
2021/03/24 10:52:19;;;;;;;19.05;11.32;;;;;;;14.52;33.22;101911.25;5080802;28;20376;-78
2021/03/24 10:54:57;;;;;;;18.38;11.25;;;;;;;14.60;33.21;101918.84;5064142;28;20484;-78
2021/03/24 10:57:49;;;;;;;19.65;11.88;;;;;;;14.67;32.62;101915.44;5066021;28;20039;-75
2021/03/24 11:00:24;;;;;;;18.63;10.57;;;;;;;14.74;32.87;101907.50;5052283;28;20401;-78
2021/03/24 11:03:05;;;;;;;19.92;11.50;;;;;;;14.86;32.89;101908.34;5076800;28;20128;-77
2021/03/24 11:05:41;;;;;;;19.40;11.35;;;;;;;14.92;32.56;101908.66;5074177;28;20039;-77
2021/03/24 11:08:21;;;;;;;20.17;11.63;;;;;;;15.01;31.65;101906.97;5073448;28;20032;-78
2021/03/24 11:10:54;;;;;;;20.60;11.60;;;;;;;15.06;32.83;101916.56;5077513;28;20121;-77
2021/03/24 11:13:28;;;;;;;18.98;11.15;;;;;;;15.15;32.50;101909.38;5070406;28;20667;-77
2021/03/24 11:16:10;;;;;;;17.08;10.38;;;;;;;15.23;31.69;101903.22;5079870;28;20091;-78
2021/03/24 11:18:43;;;;;;;20.67;11.30;;;;;;;15.27;31.81;101897.25;5078020;28;20091;-77
2021/03/24 11:21:30;;;;;;;19.48;11.35;;;;;;;15.33;31.08;101893.06;5069658;28;20052;-78
2021/03/24 11:24:24;;;;;;;19.75;11.25;;;;;;;15.39;31.37;101892.53;5045212;28;20048;-77
2021/03/24 11:27:24;;;;;;;19.58;10.95;;;;;;;15.46;31.76;101890.97;5029418;28;20054;-78
2021/03/24 11:30:18;;;;;;;18.70;10.47;;;;;;;15.52;30.96;101889.53;5034515;28;20369;-77
2021/03/24 11:32:58;;;;;;;18.25;10.27;;;;;;;15.63;31.17;101879.28;5037801;28;20424;-78
2021/03/24 11:35:32;;;;;;;17.73;9.95;;;;;;;15.71;31.43;101886.88;5017776;28;20045;-78
2021/03/24 11:38:24;;;;;;;20.23;11.00;;;;;;;15.78;31.09;101880.66;5034089;28;20706;-78
2021/03/24 11:41:04;;;;;;;17.83;10.95;;;;;;;15.86;31.01;101877.19;5014817;28;20412;-81
2021/03/24 11:43:37;;;;;;;17.55;10.10;;;;;;;15.91;31.94;101876.75;5029156;28;20058;-76
2021/03/24 11:46:09;;;;;;;18.17;10.30;;;;;;;15.99;30.90;101875.00;5033343;28;20046;-78
2021/03/24 11:49:01;;;;;;;18.27;10.60;;;;;;;16.05;30.79;101868.94;5033413;28;20152;-78
2021/03/24 11:51:39;;;;;;;17.80;10.05;;;;;;;16.13;30.42;101874.63;5021261;28;20144;-76
2021/03/24 11:54:15;;;;;;;17.25;10.00;;;;;;;16.19;30.43;101868.50;5016225;28;20555;-77
2021/03/24 11:57:04;;;;;;;17.90;10.43;;;;;;;16.25;30.01;101863.41;5007273;28;20124;-79
2021/03/24 11:59:44;;;;;;;17.52;10.65;;;;;;;16.30;30.42;101875.75;5018252;28;20049;-76
2021/03/24 12:02:19;;;;;;;17.77;10.45;;;;;;;16.34;30.17;101860.66;5033145;28;20719;-82
2021/03/24 12:05:03;;;;;;;21.02;11.90;;;;;;;16.40;30.12;101870.22;5073563;28;20037;-77